Time;durP1;ratioP1;P1;durP2;ratioP2;P2;SDS_P1;SDS_P2;PMS_P1;PMS_P2;Temp;Humidity;BMP_temperature;BMP_pressure;BME280_temperature;BME280_humidity;BME280_pressure;Samples;Min_cycle;Max_cycle;Signal;HPM_P1;HPM_P2
2022/12/08 00:10:10;;;;;;;5.30;1.93;;;;;;;0.00;100.00;99916.61;5098812;55;1134615;-67
2022/12/08 00:15:15;;;;;;;3.37;1.57;;;;;;;-0.04;100.00;99921.09;5111737;55;1134665;-69
2022/12/08 00:20:21;;;;;;;3.40;2.00;;;;;;;-0.04;100.00;99924.14;5091644;55;1136627;-67
2022/12/08 00:25:27;;;;;;;6.90;2.23;;;;;;;-0.05;100.00;99930.25;5142799;55;1136610;-67
2022/12/08 00:30:33;;;;;;;5.80;1.90;;;;;;;-0.04;100.00;99924.14;5194869;55;1136722;-70
2022/12/08 00:35:39;;;;;;;1.73;1.37;;;;;;;-0.04;100.00;99921.09;5095991;54;1136759;-71
2022/12/08 00:40:49;;;;;;;3.60;1.93;;;;;;;-0.03;100.00;99932.33;5131735;55;1136755;-67
2022/12/08 00:45:56;;;;;;;3.97;1.77;;;;;;;-0.05;100.00;99935.00;5147541;55;1136785;-69
2022/12/08 00:51:01;;;;;;;6.80;1.70;;;;;;;-0.04;100.00;99935.84;5199229;55;1136685;-67
2022/12/08 00:56:07;;;;;;;2.10;1.27;;;;;;;-0.06;100.00;99940.26;5178988;55;1136587;-70
2022/12/08 01:01:16;;;;;;;6.30;1.93;;;;;;;-0.08;100.00;99934.28;5178813;55;1136658;-69
2022/12/08 01:06:21;;;;;;;2.93;1.33;;;;;;;-0.06;100.00;99941.11;5157918;55;1136693;-71
2022/12/08 01:11:27;;;;;;;2.63;1.40;;;;;;;-0.08;100.00;99950.72;5091905;56;1136669;-68
2022/12/08 01:16:36;;;;;;;1.73;1.23;;;;;;;-0.08;100.00;99956.37;5105448;55;1136867;-68
2022/12/08 01:21:42;;;;;;;6.17;1.60;;;;;;;-0.10;100.00;99958.19;5198407;55;1136573;-69
2022/12/08 01:26:50;;;;;;;4.37;1.72;;;;;;;-0.07;100.00;99960.20;5213430;55;1136537;-68
2022/12/08 01:31:56;;;;;;;2.98;1.72;;;;;;;-0.06;100.00;99970.15;5187245;54;1136845;-68
2022/12/08 01:37:02;;;;;;;5.47;2.00;;;;;;;-0.10;100.00;99968.13;5141365;55;1136841;-68
2022/12/08 01:42:17;;;;;;;8.40;2.00;;;;;;;-0.07;100.00;99969.30;5124232;55;1136712;-68
2022/12/08 01:47:27;;;;;;;5.30;1.43;;;;;;;-0.08;100.00;99972.81;5126201;55;1136825;-67
2022/12/08 01:52:40;;;;;;;3.43;1.80;;;;;;;-0.09;100.00;99978.92;5146189;55;1136567;-66
2022/12/08 01:57:54;;;;;;;3.50;1.80;;;;;;;-0.08;100.00;99983.66;5126235;55;1136570;-68
2022/12/08 02:03:16;;;;;;;4.53;1.90;;;;;;;-0.12;100.00;99976.89;5128228;55;1136765;-69
2022/12/08 02:08:23;;;;;;;4.17;1.73;;;;;;;-0.12;100.00;99985.99;5237885;54;1136683;-69
2022/12/08 02:13:31;;;;;;;8.73;2.37;;;;;;;-0.12;100.00;99982.94;5243325;54;1136779;-67
2022/12/08 02:19:08;;;;;;;2.73;1.57;;;;;;;-0.13;100.00;99992.09;5166674;54;1136828;-71
2022/12/08 02:24:27;;;;;;;3.17;1.97;;;;;;;-0.11;100.00;99995.03;5092112;54;1136669;-65
2022/12/08 02:30:02;;;;;;;3.23;1.53;;;;;;;-0.13;100.00;100008.54;5115365;55;1136637;-71
2022/12/08 02:35:17;;;;;;;5.62;2.33;;;;;;;-0.16;100.00;100018.24;5091990;56;1138755;-70
2022/12/08 02:40:36;;;;;;;5.20;1.97;;;;;;;-0.19;100.00;100006.22;5142492;55;1138744;-66
2022/12/08 02:45:59;;;;;;;3.85;1.47;;;;;;;-0.18;100.00;100004.46;5178640;55;1138913;-69
2022/12/08 02:51:06;;;;;;;3.93;1.77;;;;;;;-0.17;100.00;100009.59;5125666;55;1138995;-69
2022/12/08 02:56:46;;;;;;;7.20;2.77;;;;;;;-0.19;100.00;100006.22;5189367;55;1138903;-70
2022/12/08 03:02:04;;;;;;;6.77;2.67;;;;;;;-0.29;100.00;100000.98;5183911;55;1138797;-68
2022/12/08 03:07:36;;;;;;;7.30;1.87;;;;;;;-0.32;100.00;100021.08;5186346;54;1138770;-67
2022/12/08 03:12:51;;;;;;;6.10;2.73;;;;;;;-0.34;100.00;100009.45;5199850;55;1139149;-68
2022/12/08 03:18:00;;;;;;;5.28;2.60;;;;;;;-0.37;100.00;100007.81;5116116;55;1138670;-70
2022/12/08 03:23:09;;;;;;;6.10;2.03;;;;;;;-0.41;100.00;100000.20;5212980;54;1138660;-71
2022/12/08 03:28:15;;;;;;;3.95;2.35;;;;;;;-0.48;100.00;99996.18;5220008;54;1138841;-68
2022/12/08 03:33:29;;;;;;;2.60;2.40;;;;;;;-0.51;100.00;99992.41;5159813;55;1136874;-67
2022/12/08 03:38:44;;;;;;;10.75;3.22;;;;;;;-0.55;100.00;99997.32;5234624;54;1136864;-70
2022/12/08 03:43:58;;;;;;;6.10;3.50;;;;;;;-0.56;100.00;100007.31;5127042;55;1138793;-66
2022/12/08 03:49:04;;;;;;;6.50;2.90;;;;;;;-0.58;100.00;100000.03;5146828;55;1138757;-68
2022/12/08 03:54:09;;;;;;;4.47;2.90;;;;;;;-0.59;100.00;100000.94;5162566;54;1139088;-70
2022/12/08 03:59:15;;;;;;;8.95;3.17;;;;;;;-0.63;100.00;99995.05;5190854;55;1138729;-71
2022/12/08 04:04:21;;;;;;;9.67;4.13;;;;;;;-0.67;100.00;99998.67;5171772;55;1136831;-70
2022/12/08 04:09:27;;;;;;;8.30;4.03;;;;;;;-0.70;100.00;99994.89;5162961;55;1136680;-67
2022/12/08 04:14:32;;;;;;;14.53;4.47;;;;;;;-0.74;100.00;99986.82;5153408;54;1136851;-70
2022/12/08 04:19:39;;;;;;;5.30;2.83;;;;;;;-0.78;100.00;99986.13;5176213;54;1138675;-72
2022/12/08 04:24:45;;;;;;;10.93;3.63;;;;;;;-0.81;100.00;99986.69;5179998;55;1136593;-72
2022/12/08 04:29:51;;;;;;;9.98;4.60;;;;;;;-0.83;100.00;99983.30;5178563;54;1138744;-70
2022/12/08 04:34:56;;;;;;;8.23;3.70;;;;;;;-0.84;100.00;99978.56;5107063;55;1136672;-67
2022/12/08 04:40:02;;;;;;;6.27;3.40;;;;;;;-0.84;100.00;99971.23;5071808;55;1136722;-68
2022/12/08 04:45:09;;;;;;;9.07;4.23;;;;;;;-0.83;100.00;99978.11;5178435;55;1136871;-65
2022/12/08 04:50:14;;;;;;;12.30;4.20;;;;;;;-0.80;100.00;99978.84;5136661;55;1136757;-70
2022/12/08 04:55:20;;;;;;;10.07;4.13;;;;;;;-0.82;100.00;99977.20;5124831;55;1138862;-66
2022/12/08 05:00:26;;;;;;;8.93;4.37;;;;;;;-0.82;100.00;99977.20;5160523;55;1138789;-70
2022/12/08 05:05:32;;;;;;;12.97;4.83;;;;;;;-0.82;100.00;99975.91;5180238;54;1136810;-70
2022/12/08 05:10:38;;;;;;;8.90;4.57;;;;;;;-0.81;100.00;99967.22;5119098;55;1138882;-70
2022/12/08 05:15:44;;;;;;;8.17;4.60;;;;;;;-0.81;100.00;99972.41;5164988;54;1136676;-68
2022/12/08 05:20:50;;;;;;;10.53;6.00;;;;;;;-0.84;100.00;99980.31;5168693;54;1136673;-68
2022/12/08 05:25:56;;;;;;;11.50;6.37;;;;;;;-0.90;100.00;99972.30;5223398;55;1138682;-69
2022/12/08 05:31:01;;;;;;;19.47;7.67;;;;;;;-0.90;100.00;99977.95;5212225;55;1138707;-66
2022/12/08 05:36:08;;;;;;;21.93;9.88;;;;;;;-0.91;100.00;99972.36;5186166;55;1138719;-69
2022/12/08 05:41:21;;;;;;;16.97;7.17;;;;;;;-0.92;100.00;99977.19;5217987;55;1138832;-67
2022/12/08 05:46:26;;;;;;;;;;;;;;;-0.94;100.00;99974.66;5215394;55;1138905;-69
2022/12/08 05:51:33;;;;;;;19.67;13.63;;;;;;;-0.90;100.00;99983.14;5232390;55;973995;-69
2022/12/08 05:56:38;;;;;;;49.80;25.57;;;;;;;-0.86;100.00;99977.78;5230854;54;1138732;-68
2022/12/08 06:01:44;;;;;;;52.40;28.63;;;;;;;-0.74;100.00;99969.49;5237180;54;1140730;-68
2022/12/08 06:06:50;;;;;;;34.70;19.40;;;;;;;-0.61;100.00;99965.94;5262130;54;1140827;-70
2022/12/08 06:11:56;;;;;;;58.17;31.30;;;;;;;-0.50;100.00;99953.84;5281291;54;1140965;-71
2022/12/08 06:17:02;;;;;;;23.12;13.18;;;;;;;-0.46;100.00;99955.41;5337369;54;1140902;-68
2022/12/08 06:22:08;;;;;;;15.68;9.08;;;;;;;-0.44;100.00;99958.30;5291867;54;1140891;-70
2022/12/08 06:27:13;;;;;;;33.02;15.43;;;;;;;-0.43;100.00;99962.59;5282555;54;1138822;-69
2022/12/08 06:32:19;;;;;;;22.67;12.40;;;;;;;-0.43;100.00;99966.95;5260575;54;1140837;-69
2022/12/08 06:37:25;;;;;;;15.47;9.03;;;;;;;-0.43;100.00;99960.00;5177075;55;1140842;-67
2022/12/08 06:42:43;;;;;;;20.53;10.40;;;;;;;-0.36;100.00;99963.20;5177190;54;1138785;-69
2022/12/08 06:47:48;;;;;;;25.77;13.48;;;;;;;-0.30;100.00;99960.78;5176426;55;1141054;-68
2022/12/08 06:52:55;;;;;;;50.67;23.93;;;;;;;-0.31;100.00;99968.21;5210499;55;1141108;-67
2022/12/08 06:58:01;;;;;;;65.07;25.10;;;;;;;-0.35;100.00;99971.38;5180069;55;1140867;-71
2022/12/08 07:03:09;;;;;;;51.95;25.08;;;;;;;-0.37;100.00;99970.14;5177850;55;1150462;-71
2022/12/08 07:08:15;;;;;;;24.17;11.30;;;;;;;-0.37;100.00;99966.25;5197578;55;1140835;-67
2022/12/08 07:13:21;;;;;;;35.23;25.43;;;;;;;-0.41;100.00;99970.33;5177253;55;1140783;-68
2022/12/08 07:18:26;;;;;;;28.77;14.03;;;;;;;-0.41;100.00;99967.27;5177197;55;1141025;-67
2022/12/08 07:23:32;;;;;;;33.83;15.43;;;;;;;-0.40;100.00;99962.47;5197279;55;1140963;-71
2022/12/08 07:28:41;;;;;;;57.43;23.43;;;;;;;-0.38;100.00;99959.81;5177054;55;1140939;-71
2022/12/08 07:33:47;;;;;;;26.70;14.47;;;;;;;-0.35;100.00;99957.09;5229855;54;1140814;-67
2022/12/08 07:38:53;;;;;;;34.00;13.83;;;;;;;-0.37;100.00;99957.16;5236117;54;1140937;-67
2022/12/08 07:43:58;;;;;;;21.57;12.25;;;;;;;-0.31;100.00;99944.83;5197968;55;1141016;-72
2022/12/08 07:49:05;;;;;;;29.10;11.93;;;;;;;-0.27;100.00;99943.31;5176767;55;1140830;-68
2022/12/08 07:54:14;;;;;;;38.90;20.85;;;;;;;-0.22;100.00;99937.47;5177869;54;1140880;-69
2022/12/08 07:59:20;;;;;;;68.05;26.68;;;;;;;-0.18;100.00;99935.59;5197982;55;1141024;-71
2022/12/08 08:04:26;;;;;;;62.97;26.23;;;;;;;-0.12;100.00;99927.06;5178252;55;1140913;-68
2022/12/08 08:09:31;;;;;;;62.73;27.30;;;;;;;-0.05;100.00;99924.60;5176651;55;1140902;-70
2022/12/08 08:14:37;;;;;;;93.43;41.90;;;;;;;0.04;100.00;99927.23;5197540;55;1140899;-70
2022/12/08 08:19:42;;;;;;;49.47;21.47;;;;;;;0.06;100.00;99926.72;5177585;55;1138678;-68
2022/12/08 08:24:48;;;;;;;74.80;24.83;;;;;;;0.07;100.00;99927.56;5177178;55;1138917;-68
2022/12/08 08:29:55;;;;;;;70.07;30.77;;;;;;;0.08;100.00;99920.16;5187405;55;1138652;-65
2022/12/08 08:35:00;;;;;;;80.57;28.42;;;;;;;0.16;100.00;99919.34;5228838;55;1138974;-69
2022/12/08 08:40:07;;;;;;;107.93;33.40;;;;;;;0.20;100.00;99912.65;5264138;54;1138745;-70
2022/12/08 08:45:13;;;;;;;56.25;23.25;;;;;;;0.22;100.00;99914.73;5303173;54;1140746;-72
2022/12/08 08:50:19;;;;;;;38.95;19.32;;;;;;;0.27;100.00;99917.13;5313263;54;1138885;-68
2022/12/08 08:55:25;;;;;;;63.27;24.00;;;;;;;0.33;100.00;99912.94;5270024;54;1138852;-68
2022/12/08 09:00:31;;;;;;;30.67;14.63;;;;;;;0.39;100.00;99908.77;5249045;54;1138707;-70
2022/12/08 09:05:42;;;;;;;56.20;22.30;;;;;;;0.43;100.00;99909.02;5243160;54;1138733;-68
2022/12/08 09:10:47;;;;;;;78.93;36.90;;;;;;;0.44;100.00;99911.17;5293274;54;1138756;-69
2022/12/08 09:15:53;;;;;;;32.67;13.72;;;;;;;0.42;100.00;99910.39;5293935;54;1138811;-69
2022/12/08 09:21:07;;;;;;;29.70;13.83;;;;;;;0.44;100.00;99911.17;5294947;54;1138868;-73
2022/12/08 09:26:13;;;;;;;39.30;15.58;;;;;;;0.41;100.00;99898.30;5212921;55;1138686;-69
2022/12/08 09:31:21;;;;;;;191.80;70.10;;;;;;;0.48;100.00;99900.98;5265313;54;1139013;-69
2022/12/08 09:36:28;;;;;;;36.70;18.52;;;;;;;0.50;100.00;99888.75;5210110;55;1140981;-69
2022/12/08 09:41:38;;;;;;;13.90;8.47;;;;;;;0.53;100.00;99887.31;5209456;54;1138914;-69
2022/12/08 09:46:47;;;;;;;12.53;7.73;;;;;;;0.55;100.00;99888.09;5225339;54;1136895;-71
2022/12/08 09:51:53;;;;;;;12.30;7.67;;;;;;;0.60;100.00;99888.73;5210489;54;1136841;-68
2022/12/08 09:57:03;;;;;;;9.00;5.80;;;;;;;0.60;100.00;99876.56;5240182;54;1136895;-67
2022/12/08 10:02:13;;;;;;;10.17;6.13;;;;;;;0.64;100.00;99874.64;5212653;54;1134893;-70
2022/12/08 10:07:29;;;;;;;14.57;9.73;;;;;;;0.68;100.00;99870.98;5214991;54;1136737;-69
2022/12/08 10:12:54;;;;;;;21.13;12.43;;;;;;;0.73;100.00;99870.31;5222463;54;1136807;-71
2022/12/08 10:18:03;;;;;;;20.37;11.53;;;;;;;0.75;100.00;99872.39;5211681;54;1138939;-70
2022/12/08 10:23:36;;;;;;;37.60;15.33;;;;;;;0.78;100.00;99873.52;5279308;54;1138933;-66
2022/12/08 10:28:43;;;;;;;28.57;15.63;;;;;;;0.84;100.00;99845.91;5299944;54;1138717;-70
2022/12/08 10:33:57;;;;;;;29.63;16.30;;;;;;;0.84;100.00;99845.91;5232327;54;1138738;-71
2022/12/08 10:39:02;;;;;;;27.67;13.30;;;;;;;0.96;100.00;99843.16;5195743;55;1138852;-70
2022/12/08 10:44:10;;;;;;;19.53;11.93;;;;;;;0.96;100.00;99843.16;5142165;54;1139026;-72
2022/12/08 10:49:23;;;;;;;17.13;10.90;;;;;;;1.01;100.00;99851.59;5131360;54;1138851;-71
2022/12/08 10:54:41;;;;;;;21.97;13.87;;;;;;;1.05;100.00;99850.54;5111981;56;1138874;-70
2022/12/08 10:59:42;;;;;;;;;;;;;;;1.03;100.00;99847.16;5198705;54;1138752;-68
2022/12/08 11:04:49;;;;;;;25.30;14.53;;;;;;;1.04;100.00;99844.95;5157658;54;971953;-71
2022/12/08 11:09:58;;;;;;;27.17;14.00;;;;;;;1.05;100.00;99851.38;5165517;54;1136756;-67
2022/12/08 11:15:05;;;;;;;36.50;16.40;;;;;;;1.09;100.00;99846.84;5207750;54;1138653;-70
2022/12/08 11:20:16;;;;;;;29.85;14.53;;;;;;;1.15;100.00;99843.10;5203010;55;1138769;-73
2022/12/08 11:25:25;;;;;;;29.67;14.70;;;;;;;1.21;100.00;99849.32;5137155;55;1138804;-69
2022/12/08 11:30:35;;;;;;;31.27;15.57;;;;;;;1.25;100.00;99834.74;5144535;55;1138759;-70
2022/12/08 11:35:45;;;;;;;32.57;20.23;;;;;;;1.30;100.00;99844.94;5296932;54;1138667;-68
2022/12/08 11:40:58;;;;;;;50.63;25.03;;;;;;;1.33;100.00;99839.13;5234726;54;1138685;-71
2022/12/08 11:46:23;;;;;;;37.88;19.65;;;;;;;1.37;100.00;99838.52;5212128;55;1138728;-72
2022/12/08 11:51:37;;;;;;;45.70;21.00;;;;;;;1.41;100.00;99842.63;5304145;54;1138855;-72
2022/12/08 11:56:53;;;;;;;31.73;14.93;;;;;;;1.46;100.00;99830.67;5246876;54;1138771;-71
2022/12/08 12:02:01;;;;;;;31.77;17.27;;;;;;;1.49;100.00;99823.55;5261016;54;1138760;-71
2022/12/08 12:07:46;;;;;;;53.97;28.43;;;;;;;1.53;100.00;99826.84;5280001;54;1139006;-69
2022/12/08 12:13:21;;;;;;;49.53;20.30;;;;;;;1.57;100.00;99816.63;5244026;54;1138897;-71
2022/12/08 12:18:45;;;;;;;26.87;13.10;;;;;;;1.59;100.00;99822.14;5295339;54;1138695;-68
2022/12/08 12:23:57;;;;;;;45.13;25.17;;;;;;;1.63;100.00;99819.77;5264468;54;1138752;-71
2022/12/08 12:29:07;;;;;;;40.52;18.77;;;;;;;1.64;100.00;99819.31;5253451;54;1138752;-69
2022/12/08 12:34:20;;;;;;;40.07;24.37;;;;;;;1.67;100.00;99809.58;5273995;54;1138883;-68
2022/12/08 12:39:30;;;;;;;41.02;21.15;;;;;;;1.69;100.00;99807.70;5187836;55;1138765;-68
2022/12/08 12:44:39;;;;;;;35.00;18.87;;;;;;;1.74;100.00;99807.47;5199644;54;1138926;-72
2022/12/08 12:49:49;;;;;;;31.13;16.87;;;;;;;1.78;100.00;99809.45;5227776;54;1138801;-70
2022/12/08 12:55:02;;;;;;;27.30;15.77;;;;;;;1.80;100.00;99795.42;5169345;54;1138705;-68
2022/12/08 13:00:14;;;;;;;26.75;16.35;;;;;;;1.83;100.00;99791.36;5098957;55;1138640;-69
2022/12/08 13:05:32;;;;;;;28.05;15.25;;;;;;;1.88;100.00;99793.23;5075918;55;1138816;-70
2022/12/08 13:10:43;;;;;;;28.67;17.10;;;;;;;1.92;100.00;99791.31;5117470;55;1138876;-68
2022/12/08 13:16:05;;;;;;;27.27;16.17;;;;;;;1.95;100.00;99784.63;5102007;54;1138699;-70
2022/12/08 13:21:16;;;;;;;26.37;15.17;;;;;;;1.97;100.00;99782.33;5176165;55;1138772;-70
2022/12/08 13:26:25;;;;;;;22.50;14.53;;;;;;;2.02;100.00;99782.90;5202551;55;1138723;-71
2022/12/08 13:31:44;;;;;;;27.07;13.83;;;;;;;2.03;100.00;99786.35;5152182;54;1138656;-70
2022/12/08 13:37:15;;;;;;;24.23;14.10;;;;;;;2.03;100.00;99784.59;5175341;55;1138833;-70
2022/12/08 13:42:46;;;;;;;33.63;19.27;;;;;;;2.07;100.00;99783.97;5034628;56;1138827;-68
2022/12/08 13:48:25;;;;;;;31.60;19.57;;;;;;;2.05;100.00;99783.20;5028015;57;1138817;-71
2022/12/08 13:53:38;;;;;;;26.27;14.27;;;;;;;2.03;100.00;99789.80;5090352;56;1138975;-74
2022/12/08 13:58:44;;;;;;;;;;;;;;;2.03;100.00;99795.48;5114846;56;1138793;-70
2022/12/08 14:03:59;;;;;;;24.10;14.50;;;;;;;2.04;100.00;99777.61;5204324;55;971923;-71
2022/12/08 14:09:09;;;;;;;24.30;15.13;;;;;;;2.04;100.00;99777.61;5135018;55;1136645;-73
2022/12/08 14:14:24;;;;;;;27.37;14.83;;;;;;;2.08;100.00;99784.34;5028307;56;1138871;-73
2022/12/08 14:19:34;;;;;;;36.88;18.52;;;;;;;2.10;100.00;99787.72;5027701;57;1138862;-70
2022/12/08 14:24:40;;;;;;;36.30;19.13;;;;;;;2.13;100.00;99778.89;5047342;56;1138766;-72
2022/12/08 14:29:55;;;;;;;25.97;13.50;;;;;;;2.14;100.00;99783.99;5053609;56;1138904;-72
2022/12/08 14:35:07;;;;;;;35.70;18.87;;;;;;;2.16;100.00;99782.14;5110420;56;1138830;-70
2022/12/08 14:40:27;;;;;;;76.20;42.45;;;;;;;2.17;100.00;99773.39;5059884;55;1138879;-68
2022/12/08 14:45:34;;;;;;;45.83;29.40;;;;;;;2.17;100.00;99768.18;5222727;54;1138777;-71
2022/12/08 14:51:04;;;;;;;44.57;20.97;;;;;;;2.14;100.00;99778.78;5257114;54;1138601;-71
2022/12/08 14:56:42;;;;;;;39.85;19.42;;;;;;;2.10;100.00;99780.73;5258419;54;1138833;-71
2022/12/08 15:01:50;;;;;;;67.80;32.43;;;;;;;2.08;100.00;99775.22;5249680;54;1138794;-70
2022/12/08 15:07:06;;;;;;;69.27;30.92;;;;;;;2.04;100.00;99771.08;5188509;55;1138713;-70
2022/12/08 15:12:19;;;;;;;80.00;34.27;;;;;;;1.99;100.00;99770.48;5226549;54;1138883;-70
2022/12/08 15:17:34;;;;;;;74.15;35.78;;;;;;;1.91;100.00;99773.52;5275989;54;1138666;-71
2022/12/08 15:22:40;;;;;;;111.70;51.73;;;;;;;1.92;100.00;99775.20;5142957;55;1138791;-69
2022/12/08 15:27:46;;;;;;;92.67;41.50;;;;;;;1.93;100.00;99777.35;5162530;55;1140837;-70
2022/12/08 15:32:54;;;;;;;112.97;44.50;;;;;;;1.95;100.00;99776.35;5234160;55;1138767;-66
2022/12/08 15:38:00;;;;;;;43.03;23.70;;;;;;;1.98;100.00;99781.41;5211499;55;1140962;-69
2022/12/08 15:43:06;;;;;;;32.47;20.10;;;;;;;1.94;100.00;99775.13;5210194;54;1138667;-68
2022/12/08 15:48:25;;;;;;;35.03;20.68;;;;;;;1.88;100.00;99772.37;5199945;55;1138746;-70
2022/12/08 15:53:31;;;;;;;76.12;39.63;;;;;;;1.87;100.00;99772.00;5273673;54;1138780;-70
2022/12/08 15:58:38;;;;;;;86.70;41.10;;;;;;;1.87;100.00;99757.66;5281122;54;1138743;-69
2022/12/08 16:03:44;;;;;;;83.50;42.00;;;;;;;1.88;100.00;99761.95;5225923;54;1138720;-68
2022/12/08 16:08:51;;;;;;;46.47;24.17;;;;;;;1.89;100.00;99757.11;5123373;55;1138758;-71
2022/12/08 16:13:57;;;;;;;45.77;25.57;;;;;;;1.93;100.00;99757.80;5188878;55;1138891;-68
2022/12/08 16:19:03;;;;;;;27.43;14.87;;;;;;;1.96;100.00;99758.48;5141915;55;1138812;-72
2022/12/08 16:24:08;;;;;;;188.93;75.57;;;;;;;1.98;100.00;99764.92;5128210;54;1138830;-67
2022/12/08 16:29:19;;;;;;;54.23;31.80;;;;;;;1.96;100.00;99753.72;5124886;54;1140940;-67
2022/12/08 16:34:24;;;;;;;40.67;24.83;;;;;;;2.02;100.00;99750.77;5149941;55;1138711;-68
2022/12/08 16:39:30;;;;;;;40.57;19.97;;;;;;;2.01;100.00;99756.44;5181289;54;1138784;-70
2022/12/08 16:44:40;;;;;;;58.27;25.37;;;;;;;2.03;100.00;99757.66;5254563;54;1138726;-70
2022/12/08 16:49:46;;;;;;;128.87;47.03;;;;;;;2.02;100.00;99754.67;5294380;54;1138881;-71
2022/12/08 16:54:53;;;;;;;204.37;59.37;;;;;;;2.03;100.00;99755.05;5278344;54;1140996;-70
2022/12/08 16:59:58;;;;;;;161.20;57.97;;;;;;;2.03;100.00;99758.50;5219317;54;1140867;-69
2022/12/08 17:05:05;;;;;;;158.37;48.60;;;;;;;2.05;100.00;99754.52;5224887;54;1141073;-68
2022/12/08 17:10:13;;;;;;;171.77;60.80;;;;;;;2.05;100.00;99751.91;5236954;54;1140853;-69
2022/12/08 17:15:23;;;;;;;109.87;39.60;;;;;;;2.05;100.00;99750.14;5072789;55;1140956;-69
2022/12/08 17:20:31;;;;;;;114.95;41.48;;;;;;;2.07;100.00;99748.76;5228926;54;1140837;-69
2022/12/08 17:25:37;;;;;;;79.37;30.43;;;;;;;2.05;100.00;99755.81;5078339;55;1140983;-71
2022/12/08 17:30:43;;;;;;;101.70;37.40;;;;;;;2.07;100.00;99758.73;5231354;55;1138863;-73
2022/12/08 17:35:54;;;;;;;78.63;31.53;;;;;;;2.05;100.00;99754.52;5224025;54;1140858;-69
2022/12/08 17:41:05;;;;;;;82.87;31.33;;;;;;;2.05;100.00;99754.05;5073390;55;1138862;-70
2022/12/08 17:46:14;;;;;;;64.37;31.70;;;;;;;2.01;100.00;99748.62;5204718;54;1138806;-72
2022/12/08 17:51:20;;;;;;;41.88;21.45;;;;;;;2.05;100.00;99752.75;5195601;54;1138817;-68
2022/12/08 17:56:26;;;;;;;35.60;19.45;;;;;;;2.08;100.00;99759.57;5174265;54;1138702;-67
2022/12/08 18:01:33;;;;;;;74.25;42.08;;;;;;;2.09;100.00;99756.04;5221023;54;1138814;-68
2022/12/08 18:06:39;;;;;;;40.13;21.47;;;;;;;2.09;100.00;99759.48;5212397;54;1138895;-70
2022/12/08 18:11:46;;;;;;;41.13;22.00;;;;;;;2.08;100.00;99771.30;5185470;54;1139278;-69
2022/12/08 18:16:51;;;;;;;46.10;23.02;;;;;;;2.08;100.00;99771.30;5073647;55;1138849;-70
2022/12/08 18:21:59;;;;;;;40.33;21.47;;;;;;;2.05;100.00;99763.18;5200907;54;1138922;-71
2022/12/08 18:27:05;;;;;;;36.60;19.80;;;;;;;2.05;100.00;99771.00;5195638;55;1138695;-70
2022/12/08 18:32:11;;;;;;;46.00;19.87;;;;;;;2.03;100.00;99770.70;5178094;54;1138810;-71
2022/12/08 18:37:16;;;;;;;40.07;20.13;;;;;;;2.03;100.00;99774.16;5145207;55;1138722;-69
2022/12/08 18:42:22;;;;;;;59.15;26.73;;;;;;;2.00;100.00;99770.86;5128090;55;1138880;-72
2022/12/08 18:47:28;;;;;;;52.43;22.70;;;;;;;1.98;100.00;99773.58;5212613;55;1138973;-71
2022/12/08 18:52:35;;;;;;;61.13;29.57;;;;;;;2.00;100.00;99776.92;5174464;55;1138705;-71
2022/12/08 18:57:42;;;;;;;49.17;24.10;;;;;;;2.01;100.00;99780.37;5104264;55;1138831;-69
2022/12/08 19:02:48;;;;;;;71.03;35.90;;;;;;;1.97;100.00;99783.63;5159220;55;1138594;-70
2022/12/08 19:07:53;;;;;;;71.22;40.63;;;;;;;1.91;100.00;99791.77;5178459;54;1138878;-69
2022/12/08 19:12:59;;;;;;;44.53;21.73;;;;;;;1.83;100.00;99792.66;5185020;55;1139119;-72
2022/12/08 19:18:05;;;;;;;41.53;20.63;;;;;;;1.75;100.00;99800.88;5186079;55;1138893;-69
2022/12/08 19:23:12;;;;;;;72.00;35.60;;;;;;;1.71;100.00;99801.11;5185513;55;1138821;-72
2022/12/08 19:28:18;;;;;;;59.53;29.20;;;;;;;1.67;100.00;99803.52;5179041;54;1138826;-70
2022/12/08 19:33:24;;;;;;;39.15;22.42;;;;;;;1.65;100.00;99806.20;5200110;54;1138722;-72
2022/12/08 19:38:29;;;;;;;33.90;18.85;;;;;;;1.62;100.00;99805.05;5100346;56;1138697;-69
2022/12/08 19:48:58;;;;;;;27.55;15.93;;;;;;;1.60;100.00;99810.80;5104759;55;1138994;-70
2022/12/08 19:54:04;;;;;;;28.40;16.33;;;;;;;1.62;100.00;99822.45;5157807;55;1138908;-72
2022/12/08 19:59:10;;;;;;;34.20;17.60;;;;;;;1.58;100.00;99822.22;5198033;55;1139253;-70
2022/12/08 20:04:17;;;;;;;29.53;15.93;;;;;;;1.57;100.00;99825.28;5199034;55;1138849;-70
2022/12/08 20:09:23;;;;;;;25.02;15.03;;;;;;;1.55;100.00;99827.13;5178647;55;1138802;-69
2022/12/08 20:14:29;;;;;;;40.23;20.97;;;;;;;1.54;100.00;99830.65;5194975;55;1138835;-72
2022/12/08 20:19:35;;;;;;;48.10;24.97;;;;;;;1.52;100.00;99835.13;5178643;55;1138750;-70
2022/12/08 20:24:40;;;;;;;26.70;14.80;;;;;;;1.48;100.00;99840.56;5199157;55;1138738;-67
2022/12/08 20:29:46;;;;;;;70.27;36.77;;;;;;;1.41;100.00;99834.35;5211084;55;1139008;-70
2022/12/08 20:34:52;;;;;;;65.47;25.83;;;;;;;1.36;100.00;99840.28;5147778;55;1138763;-72
2022/12/08 20:39:59;;;;;;;36.63;15.73;;;;;;;1.34;100.00;99839.97;5118371;55;1138843;-73
2022/12/08 20:45:07;;;;;;;29.87;13.30;;;;;;;1.30;100.00;99843.64;5118573;55;1138681;-72
2022/12/08 20:50:13;;;;;;;57.43;26.27;;;;;;;1.33;100.00;99841.73;5138591;55;1138720;-72
2022/12/08 20:55:19;;;;;;;52.57;30.93;;;;;;;1.38;100.00;99842.31;5234794;54;1138935;-70
2022/12/08 21:00:26;;;;;;;63.30;28.75;;;;;;;1.37;100.00;99847.17;5202773;54;1138893;-69
2022/12/08 21:05:34;;;;;;;74.70;29.37;;;;;;;1.37;100.00;99854.14;5203628;55;1138796;-68
2022/12/08 21:10:41;;;;;;;34.43;14.57;;;;;;;1.31;100.00;99855.74;5209924;55;1138601;-67
2022/12/08 21:15:48;;;;;;;54.20;25.90;;;;;;;1.31;100.00;99851.84;5193554;54;1138757;-67
2022/12/08 21:21:01;;;;;;;66.22;26.93;;;;;;;1.38;100.00;99851.89;5137441;55;1138983;-68
2022/12/08 21:26:17;;;;;;;64.37;27.63;;;;;;;1.39;100.00;99849.22;5180695;55;1138818;-69
2022/12/08 21:31:25;;;;;;;24.63;12.63;;;;;;;1.35;100.00;99865.09;5205058;55;1148243;-68
2022/12/08 21:36:31;;;;;;;48.07;18.17;;;;;;;1.27;100.00;99866.77;5218672;53;1138776;-69
2022/12/08 21:46:59;;;;;;;29.23;11.60;;;;;;;1.20;100.00;99866.70;5126127;55;1138655;-69
2022/12/08 21:52:05;;;;;;;19.00;8.13;;;;;;;1.20;100.00;99867.17;5211065;54;1138967;-70
2022/12/08 21:57:12;;;;;;;22.00;10.43;;;;;;;1.16;100.00;99859.11;5250480;54;1136739;-69
2022/12/08 22:02:19;;;;;;;37.83;14.87;;;;;;;1.21;100.00;99865.80;5174945;55;1138797;-70
2022/12/08 22:07:25;;;;;;;30.80;11.87;;;;;;;1.21;100.00;99855.38;5141086;54;1138874;-70
2022/12/08 22:12:30;;;;;;;17.32;9.63;;;;;;;1.20;100.00;99860.66;5155128;55;1138880;-70
2022/12/08 22:17:40;;;;;;;25.23;12.53;;;;;;;1.19;100.00;99862.41;5135421;55;1136867;-71
2022/12/08 22:22:47;;;;;;;27.67;12.50;;;;;;;1.16;100.00;99866.47;5134842;55;1138726;-71
2022/12/08 22:27:53;;;;;;;19.92;9.85;;;;;;;1.15;100.00;99870.45;5134956;55;1138874;-71
2022/12/08 22:32:59;;;;;;;19.80;11.27;;;;;;;1.12;100.00;99874.50;5137260;55;1136847;-72
2022/12/08 22:38:06;;;;;;;20.47;12.17;;;;;;;1.14;100.00;99868.30;5127258;55;1138848;-70
2022/12/08 22:43:12;;;;;;;25.37;11.93;;;;;;;1.20;100.00;99871.92;5183432;55;1138789;-66
2022/12/08 22:48:18;;;;;;;32.93;15.20;;;;;;;1.24;100.00;99879.09;5139327;55;1138606;-67
2022/12/08 22:53:23;;;;;;;31.40;14.50;;;;;;;1.28;100.00;99874.13;5122605;54;1138814;-67
2022/12/08 22:58:29;;;;;;;20.77;11.78;;;;;;;1.29;100.00;99874.05;5184646;55;1138795;-71
2022/12/08 23:03:35;;;;;;;97.10;43.13;;;;;;;1.30;100.00;99883.55;5174005;55;1138804;-69
2022/12/08 23:08:41;;;;;;;46.13;21.80;;;;;;;1.33;100.00;99895.59;5122502;55;1138810;-70
2022/12/08 23:13:47;;;;;;;33.80;17.37;;;;;;;1.35;100.00;99893.75;5122725;55;1138804;-70
2022/12/08 23:18:53;;;;;;;49.30;19.07;;;;;;;1.32;100.00;99897.35;5122668;55;1138796;-67
2022/12/08 23:24:00;;;;;;;32.50;13.83;;;;;;;1.28;100.00;99891.05;5142625;55;1138776;-72
2022/12/08 23:29:06;;;;;;;25.03;12.73;;;;;;;1.23;100.00;99883.45;5122539;55;1138859;-68